createdAt,value
2022-08-22T00:02:33.922Z,98750.94
2022-08-22T00:02:45.630Z,98809.19
2022-08-22T00:02:59.340Z,98755.28
2022-08-22T00:03:00.571Z,98787.38
2022-08-22T00:05:19.609Z,98759.31
2022-08-22T00:08:08.899Z,98761.16
2022-08-22T00:10:43.289Z,98759.56
2022-08-22T00:13:25.752Z,98765.31
2022-08-22T00:16:02.394Z,98761.63
2022-08-22T00:18:38.084Z,98767.19
2022-08-22T00:21:29.594Z,98764.06
2022-08-22T00:24:25.845Z,98760.84
2022-08-22T00:27:16.328Z,98751.44
2022-08-22T00:29:51.431Z,98745.31
2022-08-22T00:32:52.960Z,98754.66
2022-08-22T00:35:40.560Z,98754.09
2022-08-22T00:38:29.440Z,98760.91
2022-08-22T00:41:54.533Z,98756.19
2022-08-22T00:44:23.995Z,98752.72
2022-08-22T00:47:10.489Z,98752.28
2022-08-22T00:49:58.631Z,98750.56
2022-08-22T00:52:28.270Z,98732.38
2022-08-22T00:55:00.974Z,98736.69
2022-08-22T00:58:06.289Z,98755.34
2022-08-22T01:00:42.554Z,98751.03
2022-08-22T01:03:23.965Z,98736.84
2022-08-22T01:06:13.633Z,98748.53
2022-08-22T01:08:56.456Z,98730.94
2022-08-22T01:11:41.713Z,98739.91
2022-08-22T01:14:38.625Z,98738.09
2022-08-22T01:17:34.235Z,98732.09
2022-08-22T01:20:19.859Z,98737.41
2022-08-22T01:23:08.547Z,98737.59
2022-08-22T01:26:12.591Z,98731.91
2022-08-22T01:28:55.287Z,98734.97
2022-08-22T01:31:40.592Z,98724.09
2022-08-22T01:34:39.489Z,98719.00
2022-08-22T01:37:27.375Z,98713.81
2022-08-22T01:40:21.983Z,98707.25
2022-08-22T01:43:06.198Z,98711.16
2022-08-22T01:46:21.605Z,98704.97
2022-08-22T01:48:55.761Z,98702.09
2022-08-22T01:51:36.377Z,98711.16
2022-08-22T01:54:08.313Z,98702.97
2022-08-22T01:56:41.870Z,98702.09
2022-08-22T01:59:11.156Z,98701.28
2022-08-22T02:01:50.827Z,98702.91
2022-08-22T02:04:34.507Z,98710.56
2022-08-22T02:07:08.999Z,98708.63
2022-08-22T02:09:38.721Z,98719.53
2022-08-22T02:12:21.501Z,98722.34
2022-08-22T02:15:19.728Z,98718.84
2022-08-22T02:18:09.047Z,98703.75
2022-08-22T02:20:53.966Z,98718.69
2022-08-22T02:23:35.550Z,98707.03
2022-08-22T02:26:02.191Z,98702.50
2022-08-22T02:28:39.129Z,98702.94
2022-08-22T02:31:39.994Z,98702.50
2022-08-22T02:34:34.111Z,98698.81
2022-08-22T02:37:09.988Z,98710.00
2022-08-22T02:39:39.959Z,98696.88
2022-08-22T02:42:25.343Z,98717.41
2022-08-22T02:45:03.356Z,98712.91
2022-08-22T02:47:33.271Z,98716.38
2022-08-22T02:50:51.922Z,98719.03
2022-08-22T02:53:27.825Z,98719.53
2022-08-22T02:56:06.359Z,98704.75
2022-08-22T02:58:59.260Z,98705.78
2022-08-22T03:01:32.381Z,98700.44
2022-08-22T03:04:23.229Z,98691.19
2022-08-22T03:07:08.094Z,98706.13
2022-08-22T03:09:47.480Z,98705.28
2022-08-22T03:12:38.992Z,98699.16
2022-08-22T03:15:24.210Z,98693.16
2022-08-22T03:18:00.820Z,98699.97
2022-08-22T03:20:59.014Z,98699.97
2022-08-22T03:23:55.163Z,98702.63
2022-08-22T03:26:32.781Z,98688.50
2022-08-22T03:29:27.760Z,98702.66
2022-08-22T03:32:09.678Z,98698.75
2022-08-22T03:34:37.844Z,98688.91
2022-08-22T03:37:24.514Z,98690.56
2022-08-22T03:39:51.445Z,98682.34
2022-08-22T03:43:00.183Z,98687.72
2022-08-22T03:45:51.618Z,98687.28
2022-08-22T03:48:36.751Z,98683.16
2022-08-22T03:51:19.158Z,98688.47
2022-08-22T03:54:34.983Z,98686.09
2022-08-22T03:57:07.478Z,98692.41
2022-08-22T03:59:52.736Z,98692.59
2022-08-22T04:02:48.570Z,98690.19
2022-08-22T04:05:36.012Z,98704.94
2022-08-22T04:08:45.958Z,98710.25
2022-08-22T04:11:24.481Z,98724.13
2022-08-22T04:14:14.012Z,98711.94
2022-08-22T04:16:40.612Z,98704.97
2022-08-22T04:19:25.357Z,98700.44
2022-08-22T04:22:12.171Z,98704.91
2022-08-22T04:24:54.062Z,98694.59
2022-08-22T04:27:37.884Z,98692.56
2022-08-22T04:30:04.513Z,98688.28
2022-08-22T04:32:41.563Z,98688.69
2022-08-22T04:35:17.684Z,98676.63
2022-08-22T04:37:56.482Z,98677.25
2022-08-22T04:40:34.697Z,98678.91
2022-08-22T04:43:11.316Z,98686.22
2022-08-22T04:45:52.128Z,98681.09
2022-08-22T04:48:34.913Z,98685.69
2022-08-22T04:51:05.932Z,98682.44
2022-08-22T04:54:09.944Z,98690.63
2022-08-22T04:57:15.595Z,98694.94
2022-08-22T04:59:44.006Z,98700.91
2022-08-22T05:02:12.510Z,98704.59
2022-08-22T05:04:44.292Z,98712.41
2022-08-22T05:07:20.396Z,98707.69
2022-08-22T05:09:54.040Z,98711.91
2022-08-22T05:12:29.246Z,98703.75
2022-08-22T05:15:06.435Z,98690.47
2022-08-22T05:17:38.602Z,98693.75
2022-08-22T05:20:12.763Z,98711.97
2022-08-22T05:22:48.116Z,98691.50
2022-08-22T05:25:22.032Z,98705.41
2022-08-22T05:27:56.966Z,98695.13
2022-08-22T05:30:28.389Z,98714.88
2022-08-22T05:33:03.942Z,98720.19
2022-08-22T05:35:40.434Z,98713.44
2022-08-22T05:38:10.334Z,98718.50
2022-08-22T05:40:38.605Z,98716.25
2022-08-22T05:43:10.233Z,98727.59
2022-08-22T05:45:40.454Z,98720.97
2022-08-22T05:48:17.324Z,98734.50
2022-08-22T05:51:01.114Z,98736.19
2022-08-22T05:53:35.933Z,98737.22
2022-08-22T05:56:08.998Z,98735.38
2022-08-22T05:58:55.849Z,98734.47
2022-08-22T06:01:52.190Z,98735.38
2022-08-22T06:04:54.677Z,98737.53
2022-08-22T06:07:26.488Z,98745.94
2022-08-22T06:09:56.201Z,98741.38
2022-08-22T06:12:33.517Z,98727.53
2022-08-22T06:15:21.025Z,98738.16
2022-08-22T06:17:51.169Z,98731.38
2022-08-22T06:20:39.599Z,98728.41
2022-08-22T06:23:08.441Z,98718.13
2022-08-22T06:25:44.320Z,98717.25
2022-08-22T06:28:25.203Z,98728.75
2022-08-22T06:30:55.699Z,98728.91
2022-08-22T06:33:28.466Z,98736.56
2022-08-22T06:36:21.700Z,98740.31
2022-08-22T06:39:10.988Z,98743.84
2022-08-22T06:41:42.916Z,98744.00
2022-08-22T06:44:17.674Z,98747.28
2022-08-22T06:46:47.615Z,98758.75
2022-08-22T06:49:16.706Z,98757.00
2022-08-22T06:51:45.227Z,98759.25
2022-08-22T06:54:19.339Z,98763.38
2022-08-22T06:56:49.540Z,98769.94
2022-08-22T06:59:22.921Z,98771.13
2022-08-22T07:02:24.976Z,98768.59
2022-08-22T07:04:52.049Z,98775.25
2022-08-22T07:07:20.335Z,98771.94
2022-08-22T07:09:51.813Z,98771.88
2022-08-22T07:12:21.592Z,98774.72
2022-08-22T07:14:53.067Z,98777.69
2022-08-22T07:17:25.887Z,98769.53
2022-08-22T07:20:22.596Z,98765.84
2022-08-22T07:22:57.478Z,98772.00
2022-08-22T07:25:25.236Z,98771.59
2022-08-22T07:28:16.083Z,98769.16
2022-08-22T07:31:12.416Z,98775.91
2022-08-22T07:33:50.024Z,98775.91
2022-08-22T07:36:28.396Z,98783.88
2022-08-22T07:39:11.207Z,98775.69
2022-08-22T07:42:03.467Z,98783.28
2022-08-22T07:44:39.534Z,98773.44
2022-08-22T07:47:16.397Z,98790.88
2022-08-22T07:49:53.147Z,98784.94
2022-08-22T07:52:21.452Z,98787.13
2022-08-22T07:55:05.657Z,98781.69
2022-08-22T07:57:40.141Z,98769.75
2022-08-22T08:00:15.174Z,98772.25
2022-08-22T08:02:47.984Z,98777.75
2022-08-22T08:05:15.180Z,98765.03
2022-08-22T08:07:45.619Z,98764.25
2022-08-22T08:10:20.375Z,98768.13
2022-08-22T08:12:57.980Z,98771.63
2022-08-22T08:15:32.992Z,98772.00
2022-08-22T08:18:05.493Z,98785.56
2022-08-22T08:20:35.661Z,98773.28
2022-08-22T08:23:07.031Z,98783.94
2022-08-22T08:25:48.955Z,98779.63
2022-08-22T08:28:37.815Z,98785.16
2022-08-22T08:31:18.342Z,98790.50
2022-08-22T08:33:48.689Z,98785.72
2022-08-22T08:36:38.778Z,98781.25
2022-08-22T08:39:15.827Z,98788.00
2022-08-22T08:41:45.506Z,98782.53
2022-08-22T08:44:35.768Z,98791.06
2022-08-22T08:47:27.829Z,98793.38
2022-08-22T08:50:40.911Z,98794.19
2022-08-22T08:53:29.231Z,98789.34
2022-08-22T08:56:22.358Z,98789.75
2022-08-22T08:59:10.036Z,98782.03
2022-08-22T09:02:13.908Z,98778.63
2022-08-22T09:05:22.067Z,98771.09
2022-08-22T09:07:57.253Z,98773.41
2022-08-22T09:10:57.137Z,98778.84
2022-08-22T09:13:42.195Z,98777.47
2022-08-22T09:16:20.981Z,98788.50
2022-08-22T09:19:15.206Z,98786.63
2022-08-22T09:22:16.215Z,98792.06
2022-08-22T09:25:38.548Z,98781.47
2022-08-22T09:28:18.771Z,98775.72
2022-08-22T09:30:54.185Z,98773.88
2022-08-22T09:33:24.944Z,98777.56
2022-08-22T09:36:13.280Z,98780.84
2022-08-22T09:39:07.384Z,98769.34
2022-08-22T09:41:48.274Z,98774.69
2022-08-22T09:44:43.835Z,98777.31
2022-08-22T09:47:57.183Z,98774.69
2022-08-22T09:50:43.114Z,98772.81
2022-08-22T09:53:28.482Z,98774.88
2022-08-22T09:56:11.531Z,98776.72
2022-08-22T09:58:55.922Z,98781.44
2022-08-22T10:01:42.497Z,98781.88
2022-08-22T10:04:19.577Z,98788.84
2022-08-22T10:06:55.464Z,98787.59
2022-08-22T10:09:31.334Z,98783.31
2022-08-22T10:12:05.108Z,98788.84
2022-08-22T10:15:07.010Z,98784.25
2022-08-22T10:17:41.108Z,98784.00
2022-08-22T10:20:44.743Z,98786.06
2022-08-22T10:23:17.678Z,98782.94
2022-08-22T10:26:22.901Z,98782.41
2022-08-22T10:28:58.075Z,98786.47
2022-08-22T10:32:14.573Z,98791.88
2022-08-22T10:34:46.391Z,98797.31
2022-08-22T10:37:37.257Z,98792.00
2022-08-22T10:40:36.013Z,98796.00
2022-08-22T10:43:19.410Z,98794.75
2022-08-22T10:45:52.391Z,98785.13
2022-08-22T10:48:26.006Z,98784.31
2022-08-22T10:51:22.658Z,98787.00
2022-08-22T10:53:58.091Z,98792.06
2022-08-22T10:56:32.476Z,98789.13
2022-08-22T10:59:05.481Z,98794.50
2022-08-22T11:01:42.206Z,98796.63
2022-08-22T11:04:34.732Z,98800.81
2022-08-22T11:07:35.712Z,98794.16
2022-08-22T11:10:11.832Z,98804.63
2022-08-22T11:12:48.514Z,98811.00
2022-08-22T11:15:52.386Z,98816.78
2022-08-22T11:18:51.499Z,98803.00
2022-08-22T11:22:03.828Z,98806.72
2022-08-22T11:24:55.818Z,98816.75
2022-08-22T11:27:54.007Z,98803.03
2022-08-22T11:30:31.553Z,98794.19
2022-08-22T11:33:47.133Z,98802.44
2022-08-22T11:36:55.569Z,98797.44
2022-08-22T11:40:06.222Z,98805.06
2022-08-22T11:42:48.814Z,98797.84
2022-08-22T11:45:23.597Z,98805.69
2022-08-22T11:48:02.636Z,98812.22
2022-08-22T11:50:43.512Z,98812.63
2022-08-22T11:53:33.036Z,98820.91
2022-08-22T11:56:48.862Z,98826.66
2022-08-22T11:59:54.312Z,98836.47
2022-08-22T12:02:37.801Z,98837.31
2022-08-22T12:05:13.699Z,98836.50
2022-08-22T12:08:05.636Z,98841.66
2022-08-22T12:10:35.772Z,98825.44
2022-08-22T12:13:08.712Z,98852.09
2022-08-22T12:15:53.903Z,98847.59
2022-08-22T12:19:05.315Z,98837.91
2022-08-22T12:21:57.639Z,98836.06
2022-08-22T12:25:02.730Z,98829.09
2022-08-22T12:27:56.131Z,98828.69
2022-08-22T12:30:51.756Z,98812.69
2022-08-22T12:33:33.900Z,98831.19
2022-08-22T12:36:45.943Z,98823.94
2022-08-22T12:39:41.759Z,98824.16
2022-08-22T12:42:48.999Z,98823.38
2022-08-22T12:45:56.028Z,98832.75
2022-08-22T12:49:07.787Z,98828.69
2022-08-22T12:52:00.950Z,98825.00
2022-08-22T12:54:43.414Z,98822.50
2022-08-22T12:57:23.937Z,98829.06
2022-08-22T13:00:03.768Z,98827.03
2022-08-22T13:02:39.508Z,98826.22
2022-08-22T13:05:19.674Z,98826.44
2022-08-22T13:08:04.371Z,98823.69
2022-08-22T13:10:52.330Z,98820.84
2022-08-22T13:13:31.363Z,98805.63
2022-08-22T13:16:15.641Z,98809.09
2022-08-22T13:18:59.025Z,98824.22
2022-08-22T13:21:36.216Z,98802.97
2022-08-22T13:24:22.579Z,98813.47
2022-08-22T13:27:01.818Z,98808.03
2022-08-22T13:29:44.992Z,98812.47
2022-08-22T13:32:23.480Z,98811.72
2022-08-22T13:34:56.182Z,98818.34
2022-08-22T13:37:30.259Z,98810.22
2022-08-22T13:40:02.093Z,98810.09
2022-08-22T13:42:32.620Z,98809.09
2022-08-22T13:45:05.468Z,98809.50
2022-08-22T13:47:35.797Z,98805.00
2022-08-22T13:50:21.847Z,98804.34
2022-08-22T13:52:58.496Z,98798.16
2022-08-22T13:55:44.861Z,98804.47
2022-08-22T13:58:44.997Z,98789.41
2022-08-22T14:01:21.551Z,98792.44
2022-08-22T14:04:08.442Z,98795.22
2022-08-22T14:07:27.349Z,98798.78
2022-08-22T14:09:58.067Z,98799.84
2022-08-22T14:12:50.821Z,98793.69
2022-08-22T14:15:46.001Z,98810.75
2022-08-22T14:18:30.532Z,98803.38
2022-08-22T14:21:16.333Z,98811.56
2022-08-22T14:23:44.912Z,98809.22
2022-08-22T14:26:32.737Z,98817.16
2022-08-22T14:29:03.698Z,98798.59
2022-08-22T14:31:31.192Z,98808.91
2022-08-22T14:34:10.612Z,98815.53
2022-08-22T14:36:59.249Z,98799.53
2022-08-22T14:39:42.894Z,98808.38
2022-08-22T14:42:18.472Z,98808.56
2022-08-22T14:44:51.260Z,98819.84
2022-08-22T14:48:14.043Z,98813.06
2022-08-22T14:50:34.740Z,98828.69
2022-08-22T14:53:11.956Z,98809.97
2022-08-22T14:55:41.264Z,98806.06
2022-08-22T14:58:26.425Z,98820.91
2022-08-22T15:00:56.335Z,98827.06
2022-08-22T15:03:33.071Z,98823.34
2022-08-22T15:06:05.089Z,98836.53
2022-08-22T15:08:34.558Z,98834.03
2022-08-22T15:11:13.929Z,98796.25
2022-08-22T15:13:50.320Z,98813.91
2022-08-22T15:16:44.672Z,98822.97
2022-08-22T15:19:33.177Z,98807.31
2022-08-22T15:22:27.557Z,98810.81
2022-08-22T15:25:20.713Z,98809.41
2022-08-22T15:27:54.485Z,98803.63
2022-08-22T15:30:56.833Z,98799.94
2022-08-22T15:33:29.414Z,98795.81
2022-08-22T15:36:15.922Z,98794.13
2022-08-22T15:38:50.166Z,98787.97
2022-08-22T15:41:22.931Z,98786.72
2022-08-22T15:44:32.463Z,98789.75
2022-08-22T15:47:11.822Z,98786.81
2022-08-22T15:50:05.495Z,98775.63
2022-08-22T15:52:57.162Z,98772.69
2022-08-22T15:55:34.459Z,98773.13
2022-08-22T15:58:22.103Z,98792.88
2022-08-22T16:01:19.937Z,98790.41
2022-08-22T16:04:07.855Z,98784.59
2022-08-22T16:06:54.042Z,98780.25
2022-08-22T16:09:42.712Z,98790.38
2022-08-22T16:12:25.140Z,98798.59
2022-08-22T16:14:53.314Z,98804.00
2022-08-22T16:17:25.957Z,98797.97
2022-08-22T16:20:07.717Z,98782.63
2022-08-22T16:22:58.311Z,98788.81
2022-08-22T16:25:47.530Z,98786.75
2022-08-22T16:28:57.844Z,98792.53
2022-08-22T16:31:46.131Z,98801.00
2022-08-22T16:34:16.164Z,98775.41
2022-08-22T16:36:50.714Z,98778.97
2022-08-22T16:39:20.548Z,98777.78
2022-08-22T16:41:50.607Z,98789.69
2022-08-22T16:44:29.471Z,98778.97
2022-08-22T16:47:11.254Z,98787.66
2022-08-22T16:49:56.326Z,98796.25
2022-08-22T16:52:26.057Z,98788.66
2022-08-22T16:55:00.371Z,98786.59
2022-08-22T16:57:59.432Z,98784.34
2022-08-22T17:00:37.002Z,98799.53
2022-08-22T17:03:28.473Z,98812.25
2022-08-22T17:06:14.084Z,98812.47
2022-08-22T17:09:09.212Z,98817.84
2022-08-22T17:11:42.016Z,98829.91
2022-08-22T17:14:27.574Z,98819.66
2022-08-22T17:17:39.057Z,98826.44
2022-08-22T17:20:20.313Z,98828.28
2022-08-22T17:23:11.166Z,98822.53
2022-08-22T17:25:37.794Z,98826.66
2022-08-22T17:28:19.833Z,98819.44
2022-08-22T17:31:07.148Z,98837.72
2022-08-22T17:34:02.044Z,98828.72
2022-08-22T17:36:40.826Z,98834.03
2022-08-22T17:39:19.513Z,98832.78
2022-08-22T17:42:36.397Z,98828.28
2022-08-22T17:45:45.771Z,98822.72
2022-08-22T17:48:18.686Z,98818.84
2022-08-22T17:50:49.015Z,98822.94
2022-08-22T17:53:30.882Z,98832.78
2022-08-22T17:56:13.694Z,98829.50
2022-08-22T17:59:10.490Z,98852.50
2022-08-22T18:02:01.166Z,98842.03
2022-08-22T18:04:57.876Z,98843.06
2022-08-22T18:07:32.775Z,98850.03
2022-08-22T18:10:04.694Z,98851.84
2022-08-22T18:12:55.904Z,98852.09
2022-08-22T18:15:38.636Z,98855.13
2022-08-22T18:18:37.195Z,98860.22
2022-08-22T18:21:40.438Z,98859.88
2022-08-22T18:24:24.759Z,98838.94
2022-08-22T18:27:01.310Z,98840.97
2022-08-22T18:29:45.528Z,98844.69
2022-08-22T18:32:20.974Z,98852.66
2022-08-22T18:35:26.262Z,98855.75
2022-08-22T18:38:19.950Z,98861.72
2022-08-22T18:40:54.342Z,98839.78
2022-08-22T18:43:26.728Z,98843.84
2022-08-22T18:45:58.252Z,98829.47
2022-08-22T18:48:31.217Z,98840.13
2022-08-22T18:51:31.831Z,98855.75
2022-08-22T18:54:03.850Z,98867.94
2022-08-22T18:56:43.433Z,98861.72
2022-08-22T18:59:28.963Z,98866.63
2022-08-22T19:02:27.788Z,98850.00
2022-08-22T19:05:14.697Z,98845.88
2022-08-22T19:08:08.316Z,98847.09
2022-08-22T19:11:04.778Z,98862.31
2022-08-22T19:13:56.176Z,98861.06
2022-08-22T19:16:54.923Z,98849.53
2022-08-22T19:19:57.650Z,98844.44
2022-08-22T19:22:32.504Z,98854.28
2022-08-22T19:25:14.102Z,98844.66
2022-08-22T19:28:03.923Z,98843.44
2022-08-22T19:30:42.268Z,98849.59
2022-08-22T19:33:10.247Z,98854.50
2022-08-22T19:35:51.072Z,98844.66
2022-08-22T19:38:55.616Z,98839.94
2022-08-22T19:41:56.821Z,98838.91
2022-08-22T19:44:23.411Z,98847.53
2022-08-22T19:47:17.733Z,98844.66
2022-08-22T19:50:00.339Z,98849.19
2022-08-22T19:52:51.972Z,98850.44
2022-08-22T19:55:30.839Z,98846.94
2022-08-22T19:58:12.930Z,98855.28
2022-08-22T20:00:57.818Z,98835.59
2022-08-22T20:03:49.936Z,98847.53
2022-08-22T20:06:44.336Z,98818.81
2022-08-22T20:09:35.554Z,98841.78
2022-08-22T20:12:19.237Z,98841.38
2022-08-22T20:14:47.592Z,98849.19
2022-08-22T20:17:26.312Z,98849.38
2022-08-22T20:22:52.848Z,98856.59
2022-08-22T20:25:44.392Z,98854.28
2022-08-22T20:28:26.378Z,98844.66
2022-08-22T20:30:58.422Z,98865.59
2022-08-22T20:33:29.415Z,98861.69
2022-08-22T20:36:03.571Z,98860.66
2022-08-22T20:38:35.496Z,98846.31
2022-08-22T20:41:36.934Z,98849.19
2022-08-22T20:44:12.584Z,98855.72
2022-08-22T20:46:55.258Z,98840.34
2022-08-22T20:49:28.677Z,98839.94
2022-08-22T20:52:01.907Z,98829.69
2022-08-22T20:54:31.639Z,98830.50
2022-08-22T20:57:16.054Z,98824.38
2022-08-22T20:59:52.474Z,98836.06
2022-08-22T21:02:24.026Z,98837.25
2022-08-22T21:05:08.054Z,98825.16
2022-08-22T21:07:43.908Z,98824.94
2022-08-22T21:10:41.302Z,98817.16
2022-08-22T21:13:27.578Z,98819.00
2022-08-22T21:16:11.495Z,98820.13
2022-08-22T21:18:45.740Z,98831.84
2022-08-22T21:21:26.814Z,98824.56
2022-08-22T21:24:01.270Z,98830.84
2022-08-22T21:26:53.816Z,98835.19
2022-08-22T21:29:26.450Z,98831.88
2022-08-22T21:32:04.584Z,98834.41
2022-08-22T21:34:45.388Z,98826.34
2022-08-22T21:37:18.687Z,98827.16
2022-08-22T21:39:53.141Z,98809.63
2022-08-22T21:42:26.777Z,98811.47
2022-08-22T21:44:56.304Z,98810.63
2022-08-22T21:47:31.277Z,98811.84
2022-08-22T21:50:14.260Z,98810.22
2022-08-22T21:52:59.918Z,98803.66
2022-08-22T21:56:10.798Z,98802.06
2022-08-22T21:58:38.763Z,98795.88
2022-08-22T22:01:22.207Z,98797.72
2022-08-22T22:03:52.014Z,98795.41
2022-08-22T22:06:18.698Z,98806.63
2022-08-22T22:08:46.238Z,98820.50
2022-08-22T22:11:14.995Z,98809.06
2022-08-22T22:13:42.330Z,98816.44
2022-08-22T22:16:12.098Z,98799.56
2022-08-22T22:18:39.643Z,98797.38
2022-08-22T22:21:06.563Z,98820.81
2022-08-22T22:23:33.236Z,98817.59
2022-08-22T22:26:02.623Z,98810.88
2022-08-22T22:28:36.489Z,98816.59
2022-08-22T22:31:03.942Z,98821.09
2022-08-22T22:33:41.458Z,98822.63
2022-08-22T22:36:16.505Z,98813.19
2022-08-22T22:38:43.334Z,98814.66
2022-08-22T22:41:11.276Z,98827.78
2022-08-22T22:43:38.058Z,98828.41
2022-08-22T22:46:06.455Z,98822.34
2022-08-22T22:48:33.691Z,98811.66
2022-08-22T22:51:06.942Z,98812.06
2022-08-22T22:53:40.340Z,98806.09
2022-08-22T22:56:12.614Z,98803.38
2022-08-22T22:58:40.110Z,98806.28
2022-08-22T23:01:26.666Z,98814.09
2022-08-22T23:03:55.879Z,98819.19
2022-08-22T23:06:25.239Z,98821.91
2022-08-22T23:08:52.791Z,98830.13
2022-08-22T23:11:25.844Z,98841.84
2022-08-22T23:13:53.272Z,98846.59
2022-08-22T23:16:23.476Z,98855.56
2022-08-22T23:18:50.695Z,98861.41
2022-08-22T23:21:20.580Z,98858.88
2022-08-22T23:23:48.205Z,98862.88
2022-08-22T23:26:15.558Z,98859.66
2022-08-22T23:28:42.618Z,98855.97
2022-08-22T23:31:15.928Z,98849.97
2022-08-22T23:33:43.930Z,98857.66
2022-08-22T23:36:17.163Z,98856.13
2022-08-22T23:38:44.766Z,98851.84
2022-08-22T23:41:13.464Z,98850.13
2022-08-22T23:43:49.297Z,98843.69
2022-08-22T23:46:18.506Z,98847.53
2022-08-22T23:48:45.770Z,98847.59
2022-08-22T23:51:14.750Z,98839.84
2022-08-22T23:53:42.349Z,98832.88
2022-08-22T23:56:19.520Z,98849.16
2022-08-22T23:58:49.065Z,98839.75
